createdAt,value
2022-10-13T00:00:48.964Z,6.00
2022-10-13T00:03:16.559Z,6.06
2022-10-13T00:05:48.434Z,5.94
2022-10-13T00:08:19.768Z,5.81
2022-10-13T00:10:47.985Z,6.08
2022-10-13T00:13:15.659Z,6.31
2022-10-13T00:15:45.215Z,6.40
2022-10-13T00:18:12.155Z,6.50
2022-10-13T00:20:49.743Z,6.56
2022-10-13T00:23:17.066Z,6.60
2022-10-13T00:25:45.881Z,6.64
2022-10-13T00:28:13.526Z,6.64
2022-10-13T00:30:40.868Z,6.67
2022-10-13T00:33:08.859Z,6.68
2022-10-13T00:35:41.217Z,6.72
2022-10-13T00:38:07.964Z,6.67
2022-10-13T00:40:34.468Z,6.63
2022-10-13T00:43:00.977Z,6.62
2022-10-13T00:45:32.044Z,6.68
2022-10-13T00:48:01.771Z,6.60
2022-10-13T00:50:37.603Z,6.24
2022-10-13T00:53:05.848Z,6.13
2022-10-13T00:55:35.005Z,6.06
2022-10-13T00:58:05.672Z,5.86
2022-10-13T01:00:33.868Z,5.83
2022-10-13T01:03:04.034Z,5.78
2022-10-13T01:05:31.156Z,5.61
2022-10-13T01:07:59.457Z,5.46
2022-10-13T01:10:51.958Z,5.35
2022-10-13T01:13:21.367Z,5.21
2022-10-13T01:15:58.380Z,5.10
2022-10-13T01:18:45.119Z,5.01
2022-10-13T01:21:17.704Z,4.98
2022-10-13T01:24:15.352Z,5.20
2022-10-13T01:27:16.165Z,5.49
2022-10-13T01:30:04.914Z,5.55
2022-10-13T01:32:58.335Z,5.28
2022-10-13T01:35:41.668Z,5.02
2022-10-13T01:38:27.886Z,4.85
2022-10-13T01:41:16.330Z,4.67
2022-10-13T01:43:56.284Z,4.65
2022-10-13T01:46:28.701Z,4.68
2022-10-13T01:48:58.196Z,4.66
2022-10-13T01:51:27.019Z,4.57
2022-10-13T01:53:53.745Z,4.49
2022-10-13T01:56:20.535Z,4.42
2022-10-13T01:58:49.874Z,4.40
2022-10-13T02:01:47.591Z,4.35
2022-10-13T02:04:25.968Z,4.34
2022-10-13T02:07:11.362Z,4.37
2022-10-13T02:10:09.533Z,4.42
2022-10-13T02:12:57.946Z,4.62
2022-10-13T02:15:33.010Z,4.78
2022-10-13T02:18:02.022Z,4.89
2022-10-13T02:20:28.582Z,4.99
2022-10-13T02:23:01.245Z,5.10
2022-10-13T02:25:28.807Z,5.19
2022-10-13T02:27:57.871Z,5.24
2022-10-13T02:30:28.664Z,5.30
2022-10-13T02:32:55.288Z,5.37
2022-10-13T02:35:21.949Z,5.44
2022-10-13T02:37:48.447Z,5.51
2022-10-13T02:40:15.123Z,5.50
2022-10-13T02:42:41.669Z,5.56
2022-10-13T02:45:09.003Z,5.58
2022-10-13T02:47:35.577Z,5.64
2022-10-13T02:50:02.446Z,5.69
2022-10-13T02:52:28.999Z,5.70
2022-10-13T02:54:55.519Z,5.72
2022-10-13T02:57:22.584Z,5.76
2022-10-13T02:59:49.157Z,5.83
2022-10-13T03:02:15.916Z,5.90
2022-10-13T03:04:42.405Z,5.90
2022-10-13T03:07:08.947Z,5.93
2022-10-13T03:09:36.076Z,5.97
2022-10-13T03:12:02.617Z,6.02
2022-10-13T03:14:29.104Z,6.02
2022-10-13T03:16:55.574Z,6.06
2022-10-13T03:19:22.141Z,6.16
2022-10-13T03:21:49.467Z,6.19
2022-10-13T03:24:15.985Z,6.17
2022-10-13T03:26:42.474Z,6.26
2022-10-13T03:29:15.906Z,6.22
2022-10-13T03:31:42.584Z,6.24
2022-10-13T03:34:10.441Z,6.30
2022-10-13T03:36:36.959Z,6.37
2022-10-13T03:39:03.867Z,6.42
2022-10-13T03:41:30.397Z,6.49
2022-10-13T03:43:56.908Z,6.52
2022-10-13T03:46:26.484Z,6.53
2022-10-13T03:48:53.034Z,6.57
2022-10-13T03:51:20.881Z,6.64
2022-10-13T03:53:48.873Z,6.64
2022-10-13T03:56:18.595Z,6.67
2022-10-13T03:58:45.165Z,6.69
2022-10-13T04:01:13.791Z,6.67
2022-10-13T04:03:40.583Z,6.68
2022-10-13T04:06:07.207Z,6.68
2022-10-13T04:08:34.363Z,6.70
2022-10-13T04:11:03.445Z,6.70
2022-10-13T04:13:30.182Z,6.75
2022-10-13T04:15:56.663Z,6.73
2022-10-13T04:18:23.191Z,6.63
2022-10-13T04:20:50.170Z,6.62
2022-10-13T04:23:16.649Z,6.58
2022-10-13T04:25:43.163Z,6.62
2022-10-13T04:28:11.394Z,6.63
2022-10-13T04:30:38.077Z,6.60
2022-10-13T04:33:05.316Z,6.60
2022-10-13T04:35:32.109Z,6.68
2022-10-13T04:37:58.708Z,6.66
2022-10-13T04:40:26.379Z,6.67
2022-10-13T04:42:53.193Z,6.63
2022-10-13T04:45:19.835Z,6.64
2022-10-13T04:47:46.382Z,6.50
2022-10-13T04:50:12.943Z,6.49
2022-10-13T04:52:39.479Z,6.56
2022-10-13T04:55:06.573Z,6.61
2022-10-13T04:57:33.333Z,6.53
2022-10-13T04:59:59.892Z,6.53
2022-10-13T05:02:26.458Z,6.57
2022-10-13T05:04:52.953Z,6.71
2022-10-13T05:07:19.471Z,6.73
2022-10-13T05:09:46.425Z,6.73
2022-10-13T05:12:13.059Z,6.63
2022-10-13T05:14:39.552Z,6.60
2022-10-13T05:17:06.041Z,6.56
2022-10-13T05:19:32.743Z,6.43
2022-10-13T05:21:59.283Z,6.42
2022-10-13T05:24:36.540Z,6.44
2022-10-13T05:27:05.598Z,6.34
2022-10-13T05:29:32.354Z,6.24
2022-10-13T05:31:58.849Z,6.04
2022-10-13T05:34:25.490Z,6.05
2022-10-13T05:36:52.233Z,6.02
2022-10-13T05:39:19.083Z,6.08
2022-10-13T05:41:45.663Z,6.12
2022-10-13T05:44:12.167Z,6.08
2022-10-13T05:46:38.674Z,6.09
2022-10-13T05:49:05.228Z,6.13
2022-10-13T05:51:38.974Z,6.18
2022-10-13T05:54:30.907Z,6.18
2022-10-13T05:57:05.731Z,6.16
2022-10-13T05:59:39.700Z,6.13
2022-10-13T06:02:09.581Z,6.19
2022-10-13T06:04:39.780Z,6.26
2022-10-13T06:07:08.058Z,6.19
2022-10-13T06:09:37.993Z,6.13
2022-10-13T06:12:05.877Z,6.05
2022-10-13T06:14:32.405Z,5.95
2022-10-13T06:16:59.088Z,5.96
2022-10-13T06:19:25.816Z,5.95
2022-10-13T06:21:52.382Z,5.94
2022-10-13T06:24:19.038Z,6.00
2022-10-13T06:26:46.171Z,6.14
2022-10-13T06:29:12.732Z,6.25
2022-10-13T06:31:39.263Z,6.27
2022-10-13T06:34:05.925Z,6.25
2022-10-13T06:36:32.409Z,6.26
2022-10-13T06:38:58.914Z,6.40
2022-10-13T06:41:25.513Z,6.38
2022-10-13T06:43:52.126Z,6.34
2022-10-13T06:46:18.794Z,6.33
2022-10-13T06:48:45.436Z,6.41
2022-10-13T06:51:12.737Z,6.63
2022-10-13T06:53:39.478Z,6.94
2022-10-13T06:56:07.238Z,7.05
2022-10-13T06:58:37.816Z,7.25
2022-10-13T07:01:05.465Z,7.39
2022-10-13T07:03:32.255Z,7.31
2022-10-13T07:06:03.874Z,7.42
2022-10-13T07:08:31.519Z,7.57
2022-10-13T07:10:58.649Z,7.69
2022-10-13T07:13:25.341Z,7.75
2022-10-13T07:15:51.904Z,7.86
2022-10-13T07:18:18.454Z,7.87
2022-10-13T07:20:44.930Z,7.84
2022-10-13T07:23:11.428Z,7.90
2022-10-13T07:25:38.010Z,7.94
2022-10-13T07:28:04.564Z,8.00
2022-10-13T07:30:31.101Z,8.10
2022-10-13T07:32:57.588Z,7.88
2022-10-13T07:35:29.659Z,7.93
2022-10-13T07:37:57.519Z,8.11
2022-10-13T07:40:24.371Z,8.17
2022-10-13T07:42:51.078Z,8.19
2022-10-13T07:45:17.828Z,8.13
2022-10-13T07:47:44.368Z,8.18
2022-10-13T07:50:11.785Z,8.38
2022-10-13T07:52:38.312Z,8.56
2022-10-13T07:55:05.599Z,8.57
2022-10-13T07:57:32.574Z,8.78
2022-10-13T07:59:59.085Z,8.92
2022-10-13T08:02:26.316Z,8.91
2022-10-13T08:04:52.916Z,8.94
2022-10-13T08:07:19.675Z,8.87
2022-10-13T08:09:46.372Z,9.05
2022-10-13T08:12:12.949Z,9.26
2022-10-13T08:14:39.548Z,9.53
2022-10-13T08:17:06.205Z,9.54
2022-10-13T08:19:32.739Z,9.62
2022-10-13T08:22:00.113Z,9.95
2022-10-13T08:24:27.597Z,10.15
2022-10-13T08:26:54.360Z,10.40
2022-10-13T08:29:22.576Z,10.56
2022-10-13T08:31:51.227Z,10.75
2022-10-13T08:34:17.965Z,10.85
2022-10-13T08:36:44.566Z,10.89
2022-10-13T08:39:11.100Z,10.91
2022-10-13T08:41:41.424Z,10.90
2022-10-13T08:47:46.842Z,10.80
2022-10-13T08:50:21.508Z,11.04
2022-10-13T08:52:53.681Z,11.02
2022-10-13T08:55:35.154Z,10.97
2022-10-13T08:58:06.454Z,11.00
2022-10-13T09:00:32.977Z,11.07
2022-10-13T09:03:19.924Z,11.20
2022-10-13T09:05:57.082Z,11.33
2022-10-13T09:08:26.979Z,11.34
2022-10-13T09:10:53.914Z,11.33
2022-10-13T09:13:20.685Z,11.40
2022-10-13T09:15:53.049Z,11.54
2022-10-13T09:18:28.895Z,11.64
2022-10-13T09:21:23.488Z,11.68
2022-10-13T09:23:54.196Z,11.69
2022-10-13T09:26:25.411Z,11.72
2022-10-13T09:28:52.475Z,11.68
2022-10-13T09:31:25.262Z,11.52
2022-10-13T09:34:11.995Z,11.91
2022-10-13T09:36:38.621Z,12.45
2022-10-13T09:39:08.848Z,11.70
2022-10-13T09:41:36.249Z,11.54
2022-10-13T09:44:12.596Z,11.97
2022-10-13T09:46:52.886Z,12.12
2022-10-13T09:49:41.460Z,12.20
2022-10-13T09:52:18.182Z,12.52
2022-10-13T09:55:03.208Z,12.69
2022-10-13T09:57:45.850Z,12.81
2022-10-13T10:00:23.941Z,12.77
2022-10-13T10:03:12.318Z,12.79
2022-10-13T10:05:50.710Z,12.75
2022-10-13T10:09:02.079Z,12.72
2022-10-13T10:11:33.682Z,12.89
2022-10-13T10:14:26.350Z,12.72
2022-10-13T10:17:11.280Z,12.83
2022-10-13T10:19:52.970Z,12.76
2022-10-13T10:22:34.815Z,12.70
2022-10-13T10:25:19.680Z,12.89
2022-10-13T10:28:03.988Z,13.04
2022-10-13T10:30:34.979Z,13.13
2022-10-13T10:33:12.130Z,13.44
2022-10-13T10:35:38.955Z,13.40
2022-10-13T10:38:39.152Z,13.28
2022-10-13T10:41:34.741Z,13.52
2022-10-13T10:44:08.725Z,12.96
2022-10-13T10:46:40.487Z,12.97
2022-10-13T10:49:31.063Z,12.77
2022-10-13T10:52:00.070Z,12.43
2022-10-13T10:54:40.830Z,12.42
2022-10-13T10:57:20.307Z,11.91
2022-10-13T10:59:51.467Z,11.53
2022-10-13T11:02:24.613Z,11.81
2022-10-13T11:04:55.443Z,12.04
2022-10-13T11:07:24.736Z,12.35
2022-10-13T11:09:54.963Z,12.81
2022-10-13T11:12:21.877Z,13.06
2022-10-13T11:15:02.323Z,13.00
2022-10-13T11:17:34.144Z,13.19
2022-10-13T11:20:00.954Z,13.08
2022-10-13T11:22:31.139Z,13.21
2022-10-13T11:25:04.464Z,13.21
2022-10-13T11:27:33.971Z,13.24
2022-10-13T11:30:01.454Z,13.46
2022-10-13T11:32:28.237Z,13.26
2022-10-13T11:35:01.019Z,13.44
2022-10-13T11:38:05.860Z,13.37
2022-10-13T11:40:44.958Z,13.43
2022-10-13T11:43:42.270Z,13.45
2022-10-13T11:46:14.654Z,13.47
2022-10-13T11:49:18.549Z,13.47
2022-10-13T11:52:12.373Z,13.49
2022-10-13T11:54:41.521Z,13.64
2022-10-13T11:57:20.024Z,13.46
2022-10-13T11:59:49.982Z,13.70
2022-10-13T12:02:19.147Z,13.55
2022-10-13T12:05:04.303Z,13.45
2022-10-13T12:07:37.123Z,13.51
2022-10-13T12:10:07.450Z,13.61
2022-10-13T12:12:34.497Z,13.72
2022-10-13T12:15:04.376Z,13.64
2022-10-13T12:17:40.982Z,13.33
2022-10-13T12:20:29.639Z,13.13
2022-10-13T12:22:57.193Z,13.06
2022-10-13T12:25:30.033Z,13.02
2022-10-13T12:27:59.777Z,13.18
2022-10-13T12:30:36.997Z,13.32
2022-10-13T12:33:18.061Z,13.22
2022-10-13T12:35:44.770Z,13.26
2022-10-13T12:38:21.871Z,13.39
2022-10-13T12:40:50.065Z,13.51
2022-10-13T12:43:25.269Z,13.35
2022-10-13T12:45:52.125Z,13.35
2022-10-13T12:48:33.466Z,13.54
2022-10-13T12:51:19.946Z,13.35
2022-10-13T12:53:48.017Z,13.40
2022-10-13T12:56:27.636Z,13.38
2022-10-13T12:58:55.217Z,13.50
2022-10-13T13:01:28.350Z,13.90
2022-10-13T13:03:58.296Z,13.96
2022-10-13T13:06:36.935Z,13.80
2022-10-13T13:09:12.588Z,13.87
2022-10-13T13:11:39.427Z,14.01
2022-10-13T13:14:36.486Z,13.74
2022-10-13T13:20:24.947Z,13.59
2022-10-13T13:22:51.594Z,13.67
2022-10-13T13:25:18.339Z,13.73
2022-10-13T13:27:45.308Z,13.84
2022-10-13T13:30:13.657Z,13.71
2022-10-13T13:32:40.618Z,13.71
2022-10-13T13:35:08.018Z,13.43
2022-10-13T13:37:37.509Z,13.29
2022-10-13T13:40:05.930Z,13.59
2022-10-13T13:42:32.872Z,13.80
2022-10-13T13:44:59.426Z,13.94
2022-10-13T13:47:28.125Z,13.89
2022-10-13T13:49:56.648Z,13.88
2022-10-13T13:52:25.272Z,13.78
2022-10-13T13:54:52.645Z,13.76
2022-10-13T13:57:20.567Z,13.73
2022-10-13T13:59:47.636Z,13.71
2022-10-13T14:02:17.844Z,13.96
2022-10-13T14:04:44.841Z,13.67
2022-10-13T14:07:11.891Z,13.63
2022-10-13T14:09:39.103Z,13.37
2022-10-13T14:12:05.833Z,13.29
2022-10-13T14:14:32.602Z,12.98
2022-10-13T14:17:00.685Z,12.72
2022-10-13T14:19:27.625Z,12.77
2022-10-13T14:21:54.154Z,12.75
2022-10-13T14:24:21.122Z,12.79
2022-10-13T14:26:48.706Z,12.85
2022-10-13T14:29:15.977Z,12.97
2022-10-13T14:31:42.686Z,13.00
2022-10-13T14:34:09.840Z,12.96
2022-10-13T14:36:36.384Z,12.90
2022-10-13T14:39:03.056Z,13.10
2022-10-13T14:41:29.616Z,13.07
2022-10-13T14:43:57.237Z,12.86
2022-10-13T14:46:26.052Z,12.75
2022-10-13T14:48:52.765Z,12.62
2022-10-13T14:51:19.282Z,12.61
2022-10-13T14:53:45.985Z,12.61
2022-10-13T14:56:29.641Z,12.52
2022-10-13T14:59:01.034Z,12.49
2022-10-13T15:01:28.046Z,12.40
2022-10-13T15:03:55.221Z,12.40
2022-10-13T15:06:23.800Z,12.31
2022-10-13T15:08:51.081Z,12.32
2022-10-13T15:11:19.090Z,12.18
2022-10-13T15:13:45.968Z,12.02
2022-10-13T15:16:17.079Z,11.91
2022-10-13T15:18:44.273Z,11.81
2022-10-13T15:21:11.458Z,11.75
2022-10-13T15:23:38.012Z,11.54
2022-10-13T15:26:05.111Z,11.25
2022-10-13T15:28:40.473Z,10.90
2022-10-13T15:31:07.480Z,10.64
2022-10-13T15:33:34.612Z,10.55
2022-10-13T15:36:01.342Z,10.36
2022-10-13T15:38:28.348Z,10.13
2022-10-13T15:41:03.454Z,10.00
2022-10-13T15:43:31.314Z,9.86
2022-10-13T15:46:04.283Z,9.71
2022-10-13T15:48:31.907Z,9.56
2022-10-13T15:50:58.486Z,9.43
2022-10-13T15:53:25.476Z,9.27
2022-10-13T15:55:52.233Z,9.13
2022-10-13T15:58:19.237Z,9.03
2022-10-13T16:00:46.030Z,8.96
2022-10-13T16:03:15.629Z,8.83
2022-10-13T16:05:43.638Z,8.75
2022-10-13T16:08:10.887Z,8.70
2022-10-13T16:10:44.001Z,8.61
2022-10-13T16:13:14.964Z,8.62
2022-10-13T16:15:42.943Z,8.52
2022-10-13T16:18:09.607Z,8.49
2022-10-13T16:20:38.663Z,8.40
2022-10-13T16:23:05.481Z,8.34
2022-10-13T16:25:32.135Z,8.25
2022-10-13T16:27:59.492Z,8.15
2022-10-13T16:30:26.820Z,8.10
2022-10-13T16:32:55.082Z,8.05
2022-10-13T16:35:22.015Z,8.04
2022-10-13T16:37:48.577Z,8.02
2022-10-13T16:40:15.632Z,7.97
2022-10-13T16:42:43.370Z,7.97
2022-10-13T16:45:10.172Z,7.97
2022-10-13T16:47:36.759Z,8.01
2022-10-13T16:50:09.245Z,8.01
2022-10-13T16:52:37.123Z,7.94
2022-10-13T16:55:05.397Z,7.91
2022-10-13T16:57:32.749Z,7.93
2022-10-13T16:59:59.318Z,7.99
2022-10-13T17:02:25.903Z,7.94
2022-10-13T17:04:52.522Z,7.83
2022-10-13T17:07:19.244Z,7.76
2022-10-13T17:09:46.010Z,7.72
2022-10-13T17:12:12.593Z,7.68
2022-10-13T17:14:40.271Z,7.63
2022-10-13T17:17:06.955Z,7.48
2022-10-13T17:19:33.548Z,7.38
2022-10-13T17:22:00.199Z,7.31
2022-10-13T17:24:26.981Z,7.26
2022-10-13T17:26:53.505Z,7.25
2022-10-13T17:29:20.049Z,7.27
2022-10-13T17:31:46.762Z,7.22
2022-10-13T17:34:13.316Z,7.21
2022-10-13T17:36:39.839Z,7.20
2022-10-13T17:39:08.517Z,7.13
2022-10-13T17:41:35.437Z,7.06
2022-10-13T17:44:02.163Z,7.08
2022-10-13T17:46:36.717Z,7.03
2022-10-13T17:49:04.551Z,6.98
2022-10-13T17:51:31.184Z,6.94
2022-10-13T17:53:59.727Z,6.88
2022-10-13T17:56:27.185Z,6.82
2022-10-13T17:58:54.069Z,6.76
2022-10-13T18:01:25.761Z,6.73
2022-10-13T18:03:56.066Z,6.70
2022-10-13T18:06:23.003Z,6.67
2022-10-13T18:08:52.767Z,6.61
2022-10-13T18:11:21.232Z,6.57
2022-10-13T18:13:47.982Z,6.59
2022-10-13T18:16:20.146Z,6.57
2022-10-13T18:18:47.259Z,6.53
2022-10-13T18:21:16.414Z,6.50
2022-10-13T18:23:43.171Z,6.47
2022-10-13T18:26:12.504Z,6.47
2022-10-13T18:28:40.668Z,6.44
2022-10-13T18:31:18.930Z,6.41
2022-10-13T18:33:46.683Z,6.35
2022-10-13T18:36:13.815Z,6.33
2022-10-13T18:38:40.385Z,6.24
2022-10-13T18:41:06.947Z,6.17
2022-10-13T18:43:33.484Z,6.09
2022-10-13T18:46:01.527Z,6.06
2022-10-13T18:48:28.464Z,5.98
2022-10-13T18:50:55.046Z,5.92
2022-10-13T18:53:21.808Z,5.90
2022-10-13T18:55:48.424Z,5.91
2022-10-13T18:58:14.975Z,5.89
2022-10-13T19:00:41.588Z,5.87
2022-10-13T19:03:08.332Z,5.89
2022-10-13T19:05:39.283Z,5.91
2022-10-13T19:08:09.366Z,5.94
2022-10-13T19:10:36.946Z,5.92
2022-10-13T19:13:03.801Z,5.89
2022-10-13T19:15:30.334Z,5.91
2022-10-13T19:17:56.819Z,5.93
2022-10-13T19:20:23.467Z,5.90
2022-10-13T19:22:49.991Z,5.88
2022-10-13T19:25:16.695Z,5.91
2022-10-13T19:27:43.213Z,5.93
2022-10-13T19:30:10.638Z,5.90
2022-10-13T19:32:39.979Z,5.91
2022-10-13T19:35:06.658Z,5.96
2022-10-13T19:37:33.223Z,5.94
2022-10-13T19:39:59.965Z,5.94
2022-10-13T19:42:26.518Z,5.97
2022-10-13T19:44:53.032Z,6.04
2022-10-13T19:47:19.877Z,6.04
2022-10-13T19:49:47.281Z,6.03
2022-10-13T19:52:13.774Z,5.99
2022-10-13T19:54:40.251Z,5.98
2022-10-13T19:57:06.935Z,6.00
2022-10-13T19:59:33.415Z,6.06
2022-10-13T20:01:59.941Z,6.06
2022-10-13T20:04:26.546Z,6.02
2022-10-13T20:06:53.052Z,6.04
2022-10-13T20:09:20.440Z,6.09
2022-10-13T20:11:49.607Z,6.11
2022-10-13T20:14:17.633Z,6.14
2022-10-13T20:16:44.735Z,6.17
2022-10-13T20:19:13.956Z,6.18
2022-10-13T20:21:40.540Z,6.18
2022-10-13T20:24:07.180Z,6.20
2022-10-13T20:26:33.876Z,6.22
2022-10-13T20:29:00.959Z,6.22
2022-10-13T20:31:27.557Z,6.19
2022-10-13T20:33:58.495Z,6.14
2022-10-13T20:36:28.290Z,6.08
2022-10-13T20:38:55.244Z,6.03
2022-10-13T20:41:24.649Z,6.18
2022-10-13T20:43:52.642Z,6.27
2022-10-13T20:46:20.393Z,6.28
2022-10-13T20:51:35.199Z,6.22
2022-10-13T20:54:01.720Z,6.03
2022-10-13T20:56:28.291Z,5.92
2022-10-13T20:58:54.790Z,5.87
2022-10-13T21:01:23.018Z,5.82
2022-10-13T21:03:53.216Z,5.82
2022-10-13T21:06:20.194Z,5.80
2022-10-13T21:08:47.482Z,5.75
2022-10-13T21:11:16.255Z,5.76
2022-10-13T21:13:43.932Z,5.74
2022-10-13T21:16:16.560Z,5.74
2022-10-13T21:18:48.950Z,5.73
2022-10-13T21:21:18.855Z,5.71
2022-10-13T21:23:46.131Z,5.69
2022-10-13T21:26:14.375Z,5.65
2022-10-13T21:28:44.380Z,5.64
2022-10-13T21:31:12.869Z,5.60
2022-10-13T21:33:41.289Z,5.58
2022-10-13T21:36:09.245Z,5.55
2022-10-13T21:38:36.519Z,5.53
2022-10-13T21:41:07.788Z,5.48
2022-10-13T21:43:34.854Z,5.47
2022-10-13T21:46:11.520Z,5.47
2022-10-13T21:48:38.303Z,5.47
2022-10-13T21:51:29.689Z,5.51
2022-10-13T21:53:58.514Z,5.53
2022-10-13T21:56:26.295Z,5.53
2022-10-13T21:58:53.868Z,5.54
2022-10-13T22:01:21.003Z,5.55
2022-10-13T22:03:48.294Z,5.57
2022-10-13T22:06:19.308Z,5.55
2022-10-13T22:08:48.786Z,5.54
2022-10-13T22:11:16.804Z,5.53
2022-10-13T22:13:43.392Z,5.50
2022-10-13T22:16:21.543Z,5.49
2022-10-13T22:18:50.796Z,5.44
2022-10-13T22:21:20.744Z,5.43
2022-10-13T22:23:47.622Z,5.40
2022-10-13T22:26:16.438Z,5.41
2022-10-13T22:28:43.919Z,5.39
2022-10-13T22:31:12.880Z,5.38
2022-10-13T22:33:41.049Z,5.35
2022-10-13T22:36:16.347Z,5.34
2022-10-13T22:38:43.887Z,5.33
2022-10-13T22:41:10.527Z,5.31
2022-10-13T22:43:37.607Z,5.28
2022-10-13T22:46:05.007Z,5.27
2022-10-13T22:48:35.792Z,5.28
2022-10-13T22:51:06.267Z,5.34
2022-10-13T22:53:33.563Z,5.31
2022-10-13T22:56:00.767Z,5.31
2022-10-13T22:58:27.287Z,5.31
2022-10-13T23:00:53.845Z,5.26
2022-10-13T23:03:20.425Z,5.20
2022-10-13T23:05:48.459Z,5.18
2022-10-13T23:08:14.975Z,5.12
2022-10-13T23:10:41.535Z,5.13
2022-10-13T23:13:08.064Z,5.12
2022-10-13T23:15:34.611Z,5.06
2022-10-13T23:18:01.150Z,4.99
2022-10-13T23:20:27.711Z,4.97
2022-10-13T23:22:54.204Z,4.94
2022-10-13T23:25:20.765Z,4.91
2022-10-13T23:27:47.302Z,4.88
2022-10-13T23:30:14.009Z,4.87
2022-10-13T23:32:40.577Z,4.87
2022-10-13T23:35:07.341Z,4.85
2022-10-13T23:37:33.961Z,4.83
2022-10-13T23:40:00.503Z,4.82
2022-10-13T23:42:27.005Z,4.80
2022-10-13T23:44:53.534Z,4.76
2022-10-13T23:47:20.410Z,4.78
2022-10-13T23:49:47.193Z,4.78
2022-10-13T23:52:13.714Z,4.78
2022-10-13T23:54:40.215Z,4.81
2022-10-13T23:57:06.740Z,4.87
2022-10-13T23:59:33.475Z,4.96
